sensor_id;sensor_type;location;lat;lon;timestamp;P1;durP1;ratioP1;P2;durP2;ratioP2
24157;SDS011;12316;50.904;4.200;2023-04-24T00:00:20;28.17;;;17.10;;
24157;SDS011;12316;50.904;4.200;2023-04-24T00:02:46;30.05;;;18.15;;
24157;SDS011;12316;50.904;4.200;2023-04-24T00:05:12;28.63;;;16.90;;
24157;SDS011;12316;50.904;4.200;2023-04-24T00:07:39;26.77;;;18.15;;
24157;SDS011;12316;50.904;4.200;2023-04-24T00:10:05;27.63;;;17.30;;
24157;SDS011;12316;50.904;4.200;2023-04-24T00:12:32;28.05;;;17.35;;
24157;SDS011;12316;50.904;4.200;2023-04-24T00:14:57;27.75;;;16.85;;
24157;SDS011;12316;50.904;4.200;2023-04-24T00:17:23;32.35;;;17.60;;
24157;SDS011;12316;50.904;4.200;2023-04-24T00:19:49;25.00;;;16.70;;
24157;SDS011;12316;50.904;4.200;2023-04-24T00:22:23;28.83;;;16.58;;
24157;SDS011;12316;50.904;4.200;2023-04-24T00:24:49;29.08;;;17.40;;
24157;SDS011;12316;50.904;4.200;2023-04-24T00:27:15;26.48;;;16.40;;
24157;SDS011;12316;50.904;4.200;2023-04-24T00:29:40;33.13;;;16.40;;
24157;SDS011;12316;50.904;4.200;2023-04-24T00:32:06;24.40;;;15.80;;
24157;SDS011;12316;50.904;4.200;2023-04-24T00:34:32;29.13;;;17.02;;
24157;SDS011;12316;50.904;4.200;2023-04-24T00:36:57;22.25;;;15.85;;
24157;SDS011;12316;50.904;4.200;2023-04-24T00:39:23;26.08;;;16.35;;
24157;SDS011;12316;50.904;4.200;2023-04-24T00:41:49;25.55;;;16.48;;
24157;SDS011;12316;50.904;4.200;2023-04-24T00:44:16;25.80;;;16.33;;
24157;SDS011;12316;50.904;4.200;2023-04-24T00:46:42;26.13;;;16.27;;
24157;SDS011;12316;50.904;4.200;2023-04-24T00:49:07;28.88;;;16.38;;
24157;SDS011;12316;50.904;4.200;2023-04-24T00:51:33;26.65;;;16.10;;
24157;SDS011;12316;50.904;4.200;2023-04-24T00:53:59;28.95;;;16.40;;
24157;SDS011;12316;50.904;4.200;2023-04-24T00:56:26;23.13;;;15.63;;
24157;SDS011;12316;50.904;4.200;2023-04-24T00:58:53;23.35;;;15.82;;
24157;SDS011;12316;50.904;4.200;2023-04-24T01:01:20;26.60;;;16.52;;
24157;SDS011;12316;50.904;4.200;2023-04-24T01:03:46;25.77;;;15.65;;
24157;SDS011;12316;50.904;4.200;2023-04-24T01:06:14;26.77;;;15.52;;
24157;SDS011;12316;50.904;4.200;2023-04-24T01:08:40;26.30;;;15.80;;
24157;SDS011;12316;50.904;4.200;2023-04-24T01:11:06;26.13;;;16.40;;
24157;SDS011;12316;50.904;4.200;2023-04-24T01:13:32;28.02;;;15.90;;
24157;SDS011;12316;50.904;4.200;2023-04-24T01:15:58;25.80;;;15.80;;
24157;SDS011;12316;50.904;4.200;2023-04-24T01:18:25;23.77;;;16.17;;
24157;SDS011;12316;50.904;4.200;2023-04-24T01:20:53;22.75;;;15.25;;
24157;SDS011;12316;50.904;4.200;2023-04-24T01:23:21;25.42;;;15.88;;
24157;SDS011;12316;50.904;4.200;2023-04-24T01:25:48;26.67;;;16.27;;
24157;SDS011;12316;50.904;4.200;2023-04-24T01:28:15;26.88;;;16.63;;
24157;SDS011;12316;50.904;4.200;2023-04-24T01:30:41;26.15;;;15.80;;
24157;SDS011;12316;50.904;4.200;2023-04-24T01:33:07;22.90;;;15.50;;
24157;SDS011;12316;50.904;4.200;2023-04-24T01:35:33;24.30;;;15.18;;
24157;SDS011;12316;50.904;4.200;2023-04-24T01:37:59;24.52;;;15.00;;
24157;SDS011;12316;50.904;4.200;2023-04-24T01:40:25;22.88;;;14.38;;
24157;SDS011;12316;50.904;4.200;2023-04-24T01:42:50;20.83;;;14.23;;
24157;SDS011;12316;50.904;4.200;2023-04-24T01:45:17;19.08;;;12.30;;
24157;SDS011;12316;50.904;4.200;2023-04-24T01:47:43;14.52;;;11.43;;
24157;SDS011;12316;50.904;4.200;2023-04-24T01:50:10;14.00;;;10.82;;
24157;SDS011;12316;50.904;4.200;2023-04-24T01:52:35;15.13;;;10.57;;
24157;SDS011;12316;50.904;4.200;2023-04-24T01:55:04;14.90;;;10.23;;
24157;SDS011;12316;50.904;4.200;2023-04-24T01:57:31;15.00;;;9.80;;
24157;SDS011;12316;50.904;4.200;2023-04-24T01:59:57;12.30;;;9.38;;
24157;SDS011;12316;50.904;4.200;2023-04-24T02:02:23;12.48;;;9.27;;
24157;SDS011;12316;50.904;4.200;2023-04-24T02:04:49;14.90;;;9.95;;
24157;SDS011;12316;50.904;4.200;2023-04-24T02:07:15;16.50;;;10.98;;
24157;SDS011;12316;50.904;4.200;2023-04-24T02:09:41;17.30;;;10.85;;
24157;SDS011;12316;50.904;4.200;2023-04-24T02:12:07;16.27;;;10.90;;
24157;SDS011;12316;50.904;4.200;2023-04-24T02:14:32;17.10;;;11.77;;
24157;SDS011;12316;50.904;4.200;2023-04-24T02:16:58;17.40;;;11.15;;
24157;SDS011;12316;50.904;4.200;2023-04-24T02:19:24;15.80;;;11.55;;
24157;SDS011;12316;50.904;4.200;2023-04-24T02:21:49;18.52;;;11.48;;
24157;SDS011;12316;50.904;4.200;2023-04-24T02:24:15;18.73;;;11.52;;
24157;SDS011;12316;50.904;4.200;2023-04-24T02:26:41;18.92;;;11.77;;
24157;SDS011;12316;50.904;4.200;2023-04-24T02:29:07;17.77;;;11.35;;
24157;SDS011;12316;50.904;4.200;2023-04-24T02:31:32;17.70;;;12.00;;
24157;SDS011;12316;50.904;4.200;2023-04-24T02:33:58;22.50;;;12.23;;
24157;SDS011;12316;50.904;4.200;2023-04-24T02:36:24;20.95;;;12.55;;
24157;SDS011;12316;50.904;4.200;2023-04-24T02:38:50;20.63;;;11.63;;
24157;SDS011;12316;50.904;4.200;2023-04-24T02:41:15;19.02;;;12.18;;
24157;SDS011;12316;50.904;4.200;2023-04-24T02:43:41;17.02;;;12.10;;
24157;SDS011;12316;50.904;4.200;2023-04-24T02:46:07;18.35;;;11.82;;
24157;SDS011;12316;50.904;4.200;2023-04-24T02:48:32;18.65;;;11.68;;
24157;SDS011;12316;50.904;4.200;2023-04-24T02:50:58;15.95;;;11.48;;
24157;SDS011;12316;50.904;4.200;2023-04-24T02:53:23;18.25;;;12.07;;
24157;SDS011;12316;50.904;4.200;2023-04-24T02:55:49;20.13;;;12.07;;
24157;SDS011;12316;50.904;4.200;2023-04-24T02:58:15;19.30;;;12.15;;
24157;SDS011;12316;50.904;4.200;2023-04-24T03:00:42;20.33;;;11.90;;
24157;SDS011;12316;50.904;4.200;2023-04-24T03:03:08;17.65;;;12.00;;
24157;SDS011;12316;50.904;4.200;2023-04-24T03:05:34;17.77;;;11.77;;
24157;SDS011;12316;50.904;4.200;2023-04-24T03:08:00;15.90;;;11.05;;
24157;SDS011;12316;50.904;4.200;2023-04-24T03:10:25;16.70;;;11.38;;
24157;SDS011;12316;50.904;4.200;2023-04-24T03:12:51;16.25;;;11.07;;
24157;SDS011;12316;50.904;4.200;2023-04-24T03:15:17;18.17;;;11.15;;
24157;SDS011;12316;50.904;4.200;2023-04-24T03:17:43;20.33;;;11.30;;
24157;SDS011;12316;50.904;4.200;2023-04-24T03:20:08;16.10;;;11.18;;
24157;SDS011;12316;50.904;4.200;2023-04-24T03:22:34;17.10;;;11.48;;
24157;SDS011;12316;50.904;4.200;2023-04-24T03:25:00;17.90;;;11.60;;
24157;SDS011;12316;50.904;4.200;2023-04-24T03:27:26;15.77;;;11.40;;
24157;SDS011;12316;50.904;4.200;2023-04-24T03:29:52;18.17;;;12.27;;
24157;SDS011;12316;50.904;4.200;2023-04-24T03:32:20;15.38;;;11.90;;
24157;SDS011;12316;50.904;4.200;2023-04-24T03:34:47;17.15;;;11.98;;
24157;SDS011;12316;50.904;4.200;2023-04-24T03:37:16;14.70;;;10.80;;
24157;SDS011;12316;50.904;4.200;2023-04-24T03:39:42;14.70;;;10.60;;
24157;SDS011;12316;50.904;4.200;2023-04-24T03:42:07;15.32;;;10.73;;
24157;SDS011;12316;50.904;4.200;2023-04-24T03:44:33;13.07;;;9.77;;
24157;SDS011;12316;50.904;4.200;2023-04-24T03:47:00;12.07;;;9.38;;
24157;SDS011;12316;50.904;4.200;2023-04-24T03:49:25;13.60;;;9.88;;
24157;SDS011;12316;50.904;4.200;2023-04-24T03:51:51;13.18;;;9.50;;
24157;SDS011;12316;50.904;4.200;2023-04-24T03:54:17;12.38;;;8.77;;
24157;SDS011;12316;50.904;4.200;2023-04-24T03:56:44;13.23;;;8.93;;
24157;SDS011;12316;50.904;4.200;2023-04-24T03:59:10;11.02;;;8.32;;
24157;SDS011;12316;50.904;4.200;2023-04-24T04:01:35;10.45;;;8.52;;
24157;SDS011;12316;50.904;4.200;2023-04-24T04:04:02;12.38;;;8.65;;
24157;SDS011;12316;50.904;4.200;2023-04-24T04:06:29;14.68;;;9.52;;
24157;SDS011;12316;50.904;4.200;2023-04-24T04:08:55;13.02;;;8.98;;
24157;SDS011;12316;50.904;4.200;2023-04-24T04:11:21;14.57;;;8.88;;
24157;SDS011;12316;50.904;4.200;2023-04-24T04:13:47;14.25;;;9.10;;
24157;SDS011;12316;50.904;4.200;2023-04-24T04:16:13;11.55;;;9.05;;
24157;SDS011;12316;50.904;4.200;2023-04-24T04:18:41;13.02;;;9.07;;
24157;SDS011;12316;50.904;4.200;2023-04-24T04:21:07;16.05;;;9.00;;
24157;SDS011;12316;50.904;4.200;2023-04-24T04:23:33;13.07;;;8.90;;
24157;SDS011;12316;50.904;4.200;2023-04-24T04:25:58;13.45;;;9.48;;
24157;SDS011;12316;50.904;4.200;2023-04-24T04:28:24;12.02;;;9.48;;
24157;SDS011;12316;50.904;4.200;2023-04-24T04:30:51;14.50;;;9.23;;
24157;SDS011;12316;50.904;4.200;2023-04-24T04:33:20;15.55;;;10.45;;
24157;SDS011;12316;50.904;4.200;2023-04-24T04:35:46;16.95;;;11.50;;
24157;SDS011;12316;50.904;4.200;2023-04-24T04:38:17;18.33;;;12.63;;
24157;SDS011;12316;50.904;4.200;2023-04-24T04:40:43;20.02;;;12.95;;
24157;SDS011;12316;50.904;4.200;2023-04-24T04:43:09;21.50;;;13.23;;
24157;SDS011;12316;50.904;4.200;2023-04-24T04:45:36;19.20;;;13.63;;
24157;SDS011;12316;50.904;4.200;2023-04-24T04:48:03;26.13;;;14.95;;
24157;SDS011;12316;50.904;4.200;2023-04-24T04:50:29;21.05;;;14.95;;
24157;SDS011;12316;50.904;4.200;2023-04-24T04:52:55;24.40;;;15.20;;
24157;SDS011;12316;50.904;4.200;2023-04-24T04:55:21;30.38;;;16.58;;
24157;SDS011;12316;50.904;4.200;2023-04-24T04:57:47;27.90;;;16.25;;
24157;SDS011;12316;50.904;4.200;2023-04-24T05:00:12;24.65;;;15.77;;
24157;SDS011;12316;50.904;4.200;2023-04-24T05:02:38;23.42;;;16.52;;
24157;SDS011;12316;50.904;4.200;2023-04-24T05:05:04;26.60;;;16.15;;
24157;SDS011;12316;50.904;4.200;2023-04-24T05:07:31;29.77;;;16.77;;
24157;SDS011;12316;50.904;4.200;2023-04-24T05:09:57;29.83;;;17.20;;
24157;SDS011;12316;50.904;4.200;2023-04-24T05:12:22;25.70;;;15.65;;
24157;SDS011;12316;50.904;4.200;2023-04-24T05:14:48;26.15;;;16.73;;
24157;SDS011;12316;50.904;4.200;2023-04-24T05:17:13;25.05;;;16.85;;
24157;SDS011;12316;50.904;4.200;2023-04-24T05:19:40;27.50;;;17.00;;
24157;SDS011;12316;50.904;4.200;2023-04-24T05:22:05;29.20;;;16.70;;
24157;SDS011;12316;50.904;4.200;2023-04-24T05:24:35;23.35;;;16.20;;
24157;SDS011;12316;50.904;4.200;2023-04-24T05:27:04;27.00;;;16.63;;
24157;SDS011;12316;50.904;4.200;2023-04-24T05:29:30;27.60;;;16.60;;
24157;SDS011;12316;50.904;4.200;2023-04-24T05:31:56;24.90;;;15.88;;
24157;SDS011;12316;50.904;4.200;2023-04-24T05:34:22;24.98;;;15.38;;
24157;SDS011;12316;50.904;4.200;2023-04-24T05:36:48;26.05;;;15.98;;
24157;SDS011;12316;50.904;4.200;2023-04-24T05:39:16;24.67;;;15.95;;
24157;SDS011;12316;50.904;4.200;2023-04-24T05:41:42;25.35;;;16.17;;
24157;SDS011;12316;50.904;4.200;2023-04-24T05:44:08;27.27;;;16.77;;
24157;SDS011;12316;50.904;4.200;2023-04-24T05:46:34;25.95;;;16.05;;
24157;SDS011;12316;50.904;4.200;2023-04-24T05:49:00;27.92;;;16.35;;
24157;SDS011;12316;50.904;4.200;2023-04-24T05:51:26;26.88;;;16.85;;
24157;SDS011;12316;50.904;4.200;2023-04-24T05:53:52;32.15;;;17.33;;
24157;SDS011;12316;50.904;4.200;2023-04-24T05:56:18;24.67;;;16.80;;
24157;SDS011;12316;50.904;4.200;2023-04-24T05:58:44;30.23;;;17.25;;
24157;SDS011;12316;50.904;4.200;2023-04-24T06:01:10;31.33;;;17.40;;
24157;SDS011;12316;50.904;4.200;2023-04-24T06:03:37;27.42;;;16.80;;
24157;SDS011;12316;50.904;4.200;2023-04-24T06:06:04;25.80;;;16.73;;
24157;SDS011;12316;50.904;4.200;2023-04-24T06:08:31;30.52;;;16.92;;
24157;SDS011;12316;50.904;4.200;2023-04-24T06:10:56;26.95;;;17.38;;
24157;SDS011;12316;50.904;4.200;2023-04-24T06:13:22;25.77;;;17.40;;
24157;SDS011;12316;50.904;4.200;2023-04-24T06:15:47;30.80;;;17.67;;
24157;SDS011;12316;50.904;4.200;2023-04-24T06:18:13;31.38;;;18.75;;
24157;SDS011;12316;50.904;4.200;2023-04-24T06:20:38;29.17;;;18.40;;
24157;SDS011;12316;50.904;4.200;2023-04-24T06:23:05;30.58;;;18.52;;
24157;SDS011;12316;50.904;4.200;2023-04-24T06:25:30;34.92;;;19.92;;
24157;SDS011;12316;50.904;4.200;2023-04-24T06:27:56;34.40;;;18.73;;
24157;SDS011;12316;50.904;4.200;2023-04-24T06:30:22;36.42;;;18.77;;
24157;SDS011;12316;50.904;4.200;2023-04-24T06:32:48;38.35;;;19.58;;
24157;SDS011;12316;50.904;4.200;2023-04-24T06:35:14;34.88;;;19.88;;
24157;SDS011;12316;50.904;4.200;2023-04-24T06:37:41;33.00;;;19.85;;
24157;SDS011;12316;50.904;4.200;2023-04-24T06:40:07;34.78;;;20.00;;
24157;SDS011;12316;50.904;4.200;2023-04-24T06:42:33;35.08;;;19.67;;
24157;SDS011;12316;50.904;4.200;2023-04-24T06:45:00;40.88;;;20.70;;
24157;SDS011;12316;50.904;4.200;2023-04-24T06:47:26;38.95;;;20.92;;
24157;SDS011;12316;50.904;4.200;2023-04-24T06:49:51;33.65;;;20.27;;
24157;SDS011;12316;50.904;4.200;2023-04-24T06:52:18;37.45;;;20.73;;
24157;SDS011;12316;50.904;4.200;2023-04-24T06:54:44;38.95;;;20.83;;
24157;SDS011;12316;50.904;4.200;2023-04-24T06:57:10;32.95;;;19.73;;
24157;SDS011;12316;50.904;4.200;2023-04-24T06:59:36;35.58;;;20.35;;
24157;SDS011;12316;50.904;4.200;2023-04-24T07:02:01;37.80;;;19.73;;
24157;SDS011;12316;50.904;4.200;2023-04-24T07:04:28;32.10;;;19.90;;
24157;SDS011;12316;50.904;4.200;2023-04-24T07:06:54;34.28;;;19.40;;
24157;SDS011;12316;50.904;4.200;2023-04-24T07:09:23;30.60;;;17.80;;
24157;SDS011;12316;50.904;4.200;2023-04-24T07:11:50;30.67;;;17.48;;
24157;SDS011;12316;50.904;4.200;2023-04-24T07:14:17;28.90;;;17.00;;
24157;SDS011;12316;50.904;4.200;2023-04-24T07:16:43;31.40;;;17.05;;
24157;SDS011;12316;50.904;4.200;2023-04-24T07:19:10;25.60;;;14.63;;
24157;SDS011;12316;50.904;4.200;2023-04-24T07:21:36;26.85;;;15.02;;
24157;SDS011;12316;50.904;4.200;2023-04-24T07:24:01;24.38;;;14.30;;
24157;SDS011;12316;50.904;4.200;2023-04-24T07:26:28;21.10;;;12.85;;
24157;SDS011;12316;50.904;4.200;2023-04-24T07:28:54;22.33;;;12.80;;
24157;SDS011;12316;50.904;4.200;2023-04-24T07:31:20;22.40;;;13.23;;
24157;SDS011;12316;50.904;4.200;2023-04-24T07:33:46;23.00;;;12.73;;
24157;SDS011;12316;50.904;4.200;2023-04-24T07:36:12;25.48;;;13.63;;
24157;SDS011;12316;50.904;4.200;2023-04-24T07:38:42;33.83;;;14.98;;
24157;SDS011;12316;50.904;4.200;2023-04-24T07:41:08;31.20;;;15.13;;
24157;SDS011;12316;50.904;4.200;2023-04-24T07:43:33;28.52;;;16.10;;
24157;SDS011;12316;50.904;4.200;2023-04-24T07:45:59;29.70;;;15.05;;
24157;SDS011;12316;50.904;4.200;2023-04-24T07:48:25;30.75;;;14.85;;
24157;SDS011;12316;50.904;4.200;2023-04-24T07:50:51;27.10;;;13.88;;
24157;SDS011;12316;50.904;4.200;2023-04-24T07:53:17;28.40;;;13.65;;
24157;SDS011;12316;50.904;4.200;2023-04-24T07:55:43;26.15;;;13.15;;
24157;SDS011;12316;50.904;4.200;2023-04-24T07:58:08;21.33;;;12.25;;
24157;SDS011;12316;50.904;4.200;2023-04-24T08:00:34;18.60;;;11.35;;
24157;SDS011;12316;50.904;4.200;2023-04-24T08:03:00;21.77;;;10.80;;
24157;SDS011;12316;50.904;4.200;2023-04-24T08:05:26;19.05;;;10.68;;
24157;SDS011;12316;50.904;4.200;2023-04-24T08:07:53;20.70;;;10.63;;
24157;SDS011;12316;50.904;4.200;2023-04-24T08:10:20;24.35;;;10.25;;
24157;SDS011;12316;50.904;4.200;2023-04-24T08:12:46;20.55;;;10.35;;
24157;SDS011;12316;50.904;4.200;2023-04-24T08:15:12;20.10;;;9.55;;
24157;SDS011;12316;50.904;4.200;2023-04-24T08:17:37;17.70;;;9.48;;
24157;SDS011;12316;50.904;4.200;2023-04-24T08:20:03;24.15;;;9.20;;
24157;SDS011;12316;50.904;4.200;2023-04-24T08:22:30;19.23;;;9.52;;
24157;SDS011;12316;50.904;4.200;2023-04-24T08:24:56;17.08;;;8.63;;
24157;SDS011;12316;50.904;4.200;2023-04-24T08:27:22;19.20;;;8.57;;
24157;SDS011;12316;50.904;4.200;2023-04-24T08:29:49;18.77;;;8.23;;
24157;SDS011;12316;50.904;4.200;2023-04-24T08:32:15;16.80;;;7.80;;
24157;SDS011;12316;50.904;4.200;2023-04-24T08:34:40;20.10;;;8.20;;
24157;SDS011;12316;50.904;4.200;2023-04-24T08:37:06;18.25;;;7.93;;
24157;SDS011;12316;50.904;4.200;2023-04-24T08:39:32;18.35;;;7.25;;
24157;SDS011;12316;50.904;4.200;2023-04-24T08:41:57;16.00;;;7.30;;
24157;SDS011;12316;50.904;4.200;2023-04-24T08:44:30;19.23;;;7.30;;
24157;SDS011;12316;50.904;4.200;2023-04-24T08:46:57;17.63;;;6.88;;
24157;SDS011;12316;50.904;4.200;2023-04-24T08:49:23;13.93;;;6.90;;
24157;SDS011;12316;50.904;4.200;2023-04-24T08:51:50;14.73;;;7.32;;
24157;SDS011;12316;50.904;4.200;2023-04-24T08:54:17;16.15;;;6.45;;
24157;SDS011;12316;50.904;4.200;2023-04-24T08:56:43;12.95;;;6.20;;
24157;SDS011;12316;50.904;4.200;2023-04-24T08:59:09;14.10;;;5.70;;
24157;SDS011;12316;50.904;4.200;2023-04-24T09:01:36;10.73;;;5.13;;
24157;SDS011;12316;50.904;4.200;2023-04-24T09:04:02;11.15;;;5.03;;
24157;SDS011;12316;50.904;4.200;2023-04-24T09:06:28;11.05;;;4.63;;
24157;SDS011;12316;50.904;4.200;2023-04-24T09:08:57;12.43;;;5.05;;
24157;SDS011;12316;50.904;4.200;2023-04-24T09:11:26;12.57;;;5.35;;
24157;SDS011;12316;50.904;4.200;2023-04-24T09:13:53;9.18;;;5.07;;
24157;SDS011;12316;50.904;4.200;2023-04-24T09:16:20;12.05;;;4.47;;
24157;SDS011;12316;50.904;4.200;2023-04-24T09:18:48;13.05;;;4.72;;
24157;SDS011;12316;50.904;4.200;2023-04-24T09:21:13;14.50;;;5.18;;
24157;SDS011;12316;50.904;4.200;2023-04-24T09:23:40;12.65;;;5.82;;
24157;SDS011;12316;50.904;4.200;2023-04-24T09:26:06;13.10;;;4.78;;
24157;SDS011;12316;50.904;4.200;2023-04-24T09:28:35;11.60;;;4.88;;
24157;SDS011;12316;50.904;4.200;2023-04-24T09:31:12;12.25;;;4.97;;
24157;SDS011;12316;50.904;4.200;2023-04-24T09:33:40;10.00;;;4.30;;
24157;SDS011;12316;50.904;4.200;2023-04-24T09:36:34;14.60;;;5.00;;
24157;SDS011;12316;50.904;4.200;2023-04-24T09:39:03;14.43;;;4.70;;
24157;SDS011;12316;50.904;4.200;2023-04-24T09:41:31;8.38;;;4.25;;
24157;SDS011;12316;50.904;4.200;2023-04-24T09:43:58;11.27;;;4.45;;
24157;SDS011;12316;50.904;4.200;2023-04-24T09:46:37;11.45;;;4.53;;
24157;SDS011;12316;50.904;4.200;2023-04-24T09:49:10;9.13;;;4.50;;
24157;SDS011;12316;50.904;4.200;2023-04-24T09:51:40;7.65;;;4.65;;
24157;SDS011;12316;50.904;4.200;2023-04-24T09:54:16;8.65;;;4.47;;
24157;SDS011;12316;50.904;4.200;2023-04-24T09:56:44;10.90;;;4.43;;
24157;SDS011;12316;50.904;4.200;2023-04-24T09:59:10;10.43;;;4.50;;
24157;SDS011;12316;50.904;4.200;2023-04-24T10:01:36;11.55;;;5.03;;
24157;SDS011;12316;50.904;4.200;2023-04-24T10:04:03;8.75;;;4.30;;
24157;SDS011;12316;50.904;4.200;2023-04-24T10:06:35;8.65;;;4.32;;
24157;SDS011;12316;50.904;4.200;2023-04-24T10:09:01;9.45;;;4.60;;
24157;SDS011;12316;50.904;4.200;2023-04-24T10:11:28;10.15;;;4.50;;
24157;SDS011;12316;50.904;4.200;2023-04-24T10:13:55;8.15;;;4.50;;
24157;SDS011;12316;50.904;4.200;2023-04-24T10:16:22;10.93;;;4.63;;
24157;SDS011;12316;50.904;4.200;2023-04-24T10:18:48;9.40;;;4.80;;
24157;SDS011;12316;50.904;4.200;2023-04-24T10:21:14;11.00;;;4.80;;
24157;SDS011;12316;50.904;4.200;2023-04-24T10:23:42;9.25;;;4.63;;
24157;SDS011;12316;50.904;4.200;2023-04-24T10:26:14;8.35;;;4.70;;
24157;SDS011;12316;50.904;4.200;2023-04-24T10:28:45;10.48;;;4.70;;
24157;SDS011;12316;50.904;4.200;2023-04-24T10:31:12;8.55;;;4.60;;
24157;SDS011;12316;50.904;4.200;2023-04-24T10:33:39;9.25;;;4.63;;
24157;SDS011;12316;50.904;4.200;2023-04-24T10:36:07;9.15;;;4.97;;
24157;SDS011;12316;50.904;4.200;2023-04-24T10:38:39;9.98;;;4.38;;
24157;SDS011;12316;50.904;4.200;2023-04-24T10:41:10;10.00;;;4.63;;
24157;SDS011;12316;50.904;4.200;2023-04-24T10:43:41;11.07;;;4.80;;
24157;SDS011;12316;50.904;4.200;2023-04-24T10:46:07;11.23;;;5.07;;
24157;SDS011;12316;50.904;4.200;2023-04-24T10:48:35;10.60;;;4.88;;
24157;SDS011;12316;50.904;4.200;2023-04-24T10:51:10;8.15;;;5.10;;
24157;SDS011;12316;50.904;4.200;2023-04-24T10:53:38;10.20;;;5.30;;
24157;SDS011;12316;50.904;4.200;2023-04-24T10:56:08;10.90;;;5.10;;
24157;SDS011;12316;50.904;4.200;2023-04-24T10:58:49;9.93;;;5.05;;
24157;SDS011;12316;50.904;4.200;2023-04-24T11:01:24;10.93;;;5.15;;
24157;SDS011;12316;50.904;4.200;2023-04-24T11:03:54;12.27;;;5.15;;
24157;SDS011;12316;50.904;4.200;2023-04-24T11:06:31;8.85;;;5.18;;
24157;SDS011;12316;50.904;4.200;2023-04-24T11:09:04;11.50;;;5.30;;
24157;SDS011;12316;50.904;4.200;2023-04-24T11:11:37;11.05;;;5.25;;
24157;SDS011;12316;50.904;4.200;2023-04-24T11:14:06;9.57;;;5.43;;
24157;SDS011;12316;50.904;4.200;2023-04-24T11:16:34;13.77;;;5.55;;
24157;SDS011;12316;50.904;4.200;2023-04-24T11:27:11;11.93;;;5.78;;
24157;SDS011;12316;50.904;4.200;2023-04-24T11:29:42;9.57;;;5.65;;
24157;SDS011;12316;50.904;4.200;2023-04-24T11:34:50;10.60;;;6.03;;
24157;SDS011;12316;50.904;4.200;2023-04-24T11:37:24;9.15;;;5.60;;
24157;SDS011;12316;50.904;4.200;2023-04-24T11:39:56;11.82;;;5.15;;
24157;SDS011;12316;50.904;4.200;2023-04-24T11:42:23;10.60;;;5.53;;
24157;SDS011;12316;50.904;4.200;2023-04-24T11:44:49;9.30;;;5.80;;
24157;SDS011;12316;50.904;4.200;2023-04-24T11:47:16;11.45;;;5.90;;
24157;SDS011;12316;50.904;4.200;2023-04-24T11:49:42;9.30;;;5.25;;
24157;SDS011;12316;50.904;4.200;2023-04-24T11:52:08;9.25;;;5.93;;
24157;SDS011;12316;50.904;4.200;2023-04-24T11:54:34;8.57;;;5.32;;
24157;SDS011;12316;50.904;4.200;2023-04-24T11:56:59;11.18;;;5.60;;
24157;SDS011;12316;50.904;4.200;2023-04-24T11:59:29;10.32;;;5.32;;
24157;SDS011;12316;50.904;4.200;2023-04-24T12:01:59;6.78;;;5.35;;
24157;SDS011;12316;50.904;4.200;2023-04-24T12:04:25;7.60;;;4.88;;
24157;SDS011;12316;50.904;4.200;2023-04-24T12:07:02;9.73;;;5.43;;
24157;SDS011;12316;50.904;4.200;2023-04-24T12:09:40;7.82;;;5.30;;
24157;SDS011;12316;50.904;4.200;2023-04-24T12:12:10;8.73;;;5.13;;
24157;SDS011;12316;50.904;4.200;2023-04-24T12:14:44;11.65;;;5.53;;
24157;SDS011;12316;50.904;4.200;2023-04-24T12:17:10;9.40;;;5.05;;
24157;SDS011;12316;50.904;4.200;2023-04-24T12:19:36;10.68;;;5.50;;
24157;SDS011;12316;50.904;4.200;2023-04-24T12:22:02;8.82;;;5.43;;
24157;SDS011;12316;50.904;4.200;2023-04-24T12:24:30;7.55;;;5.07;;
24157;SDS011;12316;50.904;4.200;2023-04-24T12:26:56;13.30;;;5.47;;
24157;SDS011;12316;50.904;4.200;2023-04-24T12:29:23;9.43;;;5.22;;
24157;SDS011;12316;50.904;4.200;2023-04-24T12:31:50;8.93;;;5.13;;
24157;SDS011;12316;50.904;4.200;2023-04-24T12:34:22;8.15;;;4.75;;
24157;SDS011;12316;50.904;4.200;2023-04-24T12:36:50;5.57;;;4.32;;
24157;SDS011;12316;50.904;4.200;2023-04-24T12:39:19;9.25;;;5.00;;
24157;SDS011;12316;50.904;4.200;2023-04-24T12:41:57;8.70;;;4.70;;
24157;SDS011;12316;50.904;4.200;2023-04-24T12:44:34;8.38;;;4.30;;
24157;SDS011;12316;50.904;4.200;2023-04-24T12:47:00;7.82;;;4.15;;
24157;SDS011;12316;50.904;4.200;2023-04-24T12:49:28;8.95;;;4.60;;
24157;SDS011;12316;50.904;4.200;2023-04-24T12:51:55;7.35;;;4.20;;
24157;SDS011;12316;50.904;4.200;2023-04-24T12:54:21;7.97;;;3.90;;
24157;SDS011;12316;50.904;4.200;2023-04-24T12:56:47;10.63;;;4.05;;
24157;SDS011;12316;50.904;4.200;2023-04-24T12:59:12;7.53;;;3.90;;
24157;SDS011;12316;50.904;4.200;2023-04-24T13:01:38;7.32;;;3.75;;
24157;SDS011;12316;50.904;4.200;2023-04-24T13:04:04;4.75;;;3.13;;
24157;SDS011;12316;50.904;4.200;2023-04-24T13:06:30;6.45;;;3.15;;
24157;SDS011;12316;50.904;4.200;2023-04-24T13:08:57;7.55;;;3.45;;
24157;SDS011;12316;50.904;4.200;2023-04-24T13:11:23;6.70;;;3.30;;
24157;SDS011;12316;50.904;4.200;2023-04-24T13:13:49;5.82;;;3.45;;
24157;SDS011;12316;50.904;4.200;2023-04-24T13:16:15;6.97;;;3.45;;
24157;SDS011;12316;50.904;4.200;2023-04-24T13:18:41;6.50;;;3.28;;
24157;SDS011;12316;50.904;4.200;2023-04-24T13:21:06;7.50;;;3.35;;
24157;SDS011;12316;50.904;4.200;2023-04-24T13:23:32;6.88;;;3.00;;
24157;SDS011;12316;50.904;4.200;2023-04-24T13:25:58;6.13;;;3.00;;
24157;SDS011;12316;50.904;4.200;2023-04-24T13:28:24;6.93;;;3.00;;
24157;SDS011;12316;50.904;4.200;2023-04-24T13:30:50;4.88;;;2.40;;
24157;SDS011;12316;50.904;4.200;2023-04-24T13:33:16;6.82;;;2.60;;
24157;SDS011;12316;50.904;4.200;2023-04-24T13:35:42;4.90;;;2.50;;
24157;SDS011;12316;50.904;4.200;2023-04-24T13:38:07;5.35;;;2.60;;
24157;SDS011;12316;50.904;4.200;2023-04-24T13:40:33;5.82;;;2.63;;
24157;SDS011;12316;50.904;4.200;2023-04-24T13:42:59;2.88;;;1.92;;
24157;SDS011;12316;50.904;4.200;2023-04-24T13:45:26;4.72;;;2.13;;
24157;SDS011;12316;50.904;4.200;2023-04-24T13:47:52;7.10;;;1.92;;
24157;SDS011;12316;50.904;4.200;2023-04-24T13:50:19;4.43;;;1.65;;
24157;SDS011;12316;50.904;4.200;2023-04-24T13:52:45;4.53;;;1.70;;
24157;SDS011;12316;50.904;4.200;2023-04-24T13:55:10;7.63;;;2.60;;
24157;SDS011;12316;50.904;4.200;2023-04-24T13:57:36;6.13;;;2.50;;
24157;SDS011;12316;50.904;4.200;2023-04-24T14:00:02;5.85;;;2.33;;
24157;SDS011;12316;50.904;4.200;2023-04-24T14:02:29;7.18;;;2.65;;
24157;SDS011;12316;50.904;4.200;2023-04-24T14:04:55;6.78;;;2.55;;
24157;SDS011;12316;50.904;4.200;2023-04-24T14:07:20;5.75;;;2.38;;
24157;SDS011;12316;50.904;4.200;2023-04-24T14:09:46;5.47;;;2.40;;
24157;SDS011;12316;50.904;4.200;2023-04-24T14:12:12;6.25;;;2.38;;
24157;SDS011;12316;50.904;4.200;2023-04-24T14:14:39;8.02;;;2.70;;
24157;SDS011;12316;50.904;4.200;2023-04-24T14:17:05;5.22;;;2.28;;
24157;SDS011;12316;50.904;4.200;2023-04-24T14:19:30;7.00;;;2.60;;
24157;SDS011;12316;50.904;4.200;2023-04-24T14:21:56;2.83;;;2.00;;
24157;SDS011;12316;50.904;4.200;2023-04-24T14:24:23;5.30;;;2.20;;
24157;SDS011;12316;50.904;4.200;2023-04-24T14:26:49;5.65;;;2.00;;
24157;SDS011;12316;50.904;4.200;2023-04-24T14:29:14;4.95;;;2.30;;
24157;SDS011;12316;50.904;4.200;2023-04-24T14:31:41;3.88;;;2.20;;
24157;SDS011;12316;50.904;4.200;2023-04-24T14:34:07;5.05;;;2.10;;
24157;SDS011;12316;50.904;4.200;2023-04-24T14:36:34;5.03;;;1.90;;
24157;SDS011;12316;50.904;4.200;2023-04-24T14:39:00;4.18;;;1.60;;